sensor_id;sensor_type;location;lat;lon;timestamp;P1;durP1;ratioP1;P2;durP2;ratioP2
26989;SDS011;14537;47.788;11.858;2022-10-28T00:00:49;1.63;;;1.05;;
26989;SDS011;14537;47.788;11.858;2022-10-28T00:03:15;1.02;;;0.80;;
26989;SDS011;14537;47.788;11.858;2022-10-28T00:05:41;2.92;;;1.10;;
26989;SDS011;14537;47.788;11.858;2022-10-28T00:08:07;2.85;;;1.00;;
26989;SDS011;14537;47.788;11.858;2022-10-28T00:10:33;2.78;;;1.00;;
26989;SDS011;14537;47.788;11.858;2022-10-28T00:12:59;1.33;;;0.80;;
26989;SDS011;14537;47.788;11.858;2022-10-28T00:15:25;2.10;;;0.85;;
26989;SDS011;14537;47.788;11.858;2022-10-28T00:17:50;1.85;;;1.00;;
26989;SDS011;14537;47.788;11.858;2022-10-28T00:20:16;2.47;;;1.15;;
26989;SDS011;14537;47.788;11.858;2022-10-28T00:22:41;1.45;;;0.82;;
26989;SDS011;14537;47.788;11.858;2022-10-28T00:25:07;2.22;;;1.02;;
26989;SDS011;14537;47.788;11.858;2022-10-28T00:27:33;1.58;;;0.80;;
26989;SDS011;14537;47.788;11.858;2022-10-28T00:29:59;4.78;;;0.82;;
26989;SDS011;14537;47.788;11.858;2022-10-28T00:32:27;3.70;;;1.02;;
26989;SDS011;14537;47.788;11.858;2022-10-28T00:34:53;2.75;;;0.70;;
26989;SDS011;14537;47.788;11.858;2022-10-28T00:37:19;2.85;;;1.10;;
26989;SDS011;14537;47.788;11.858;2022-10-28T00:39:45;2.78;;;1.20;;
26989;SDS011;14537;47.788;11.858;2022-10-28T00:42:10;3.70;;;1.17;;
26989;SDS011;14537;47.788;11.858;2022-10-28T00:45:00;0.93;;;0.60;;
26989;SDS011;14537;47.788;11.858;2022-10-28T00:52:52;3.47;;;0.80;;
26989;SDS011;14537;47.788;11.858;2022-10-28T00:55:23;1.77;;;0.85;;
26989;SDS011;14537;47.788;11.858;2022-10-28T00:57:49;1.48;;;0.90;;
26989;SDS011;14537;47.788;11.858;2022-10-28T01:00:20;0.82;;;0.60;;
26989;SDS011;14537;47.788;11.858;2022-10-28T01:02:47;2.17;;;0.88;;
26989;SDS011;14537;47.788;11.858;2022-10-28T01:05:16;3.10;;;0.77;;
26989;SDS011;14537;47.788;11.858;2022-10-28T01:07:45;1.88;;;1.10;;
26989;SDS011;14537;47.788;11.858;2022-10-28T01:10:11;2.97;;;0.77;;
26989;SDS011;14537;47.788;11.858;2022-10-28T01:15:40;2.20;;;0.93;;
26989;SDS011;14537;47.788;11.858;2022-10-28T01:18:25;0.45;;;0.40;;
26989;SDS011;14537;47.788;11.858;2022-10-28T01:32:50;1.05;;;0.77;;
26989;SDS011;14537;47.788;11.858;2022-10-28T01:35:23;5.82;;;0.90;;
26989;SDS011;14537;47.788;11.858;2022-10-28T01:40:46;1.30;;;0.80;;
26989;SDS011;14537;47.788;11.858;2022-10-28T01:43:35;1.08;;;0.68;;
26989;SDS011;14537;47.788;11.858;2022-10-28T01:46:23;1.95;;;1.35;;
26989;SDS011;14537;47.788;11.858;2022-10-28T01:48:54;1.58;;;0.60;;
26989;SDS011;14537;47.788;11.858;2022-10-28T01:51:25;2.65;;;0.80;;
26989;SDS011;14537;47.788;11.858;2022-10-28T01:54:06;3.05;;;0.88;;
26989;SDS011;14537;47.788;11.858;2022-10-28T01:56:34;3.47;;;0.68;;
26989;SDS011;14537;47.788;11.858;2022-10-28T01:59:03;1.33;;;0.65;;
26989;SDS011;14537;47.788;11.858;2022-10-28T02:01:33;3.40;;;0.68;;
26989;SDS011;14537;47.788;11.858;2022-10-28T02:04:01;9.52;;;0.82;;
26989;SDS011;14537;47.788;11.858;2022-10-28T02:06:27;1.17;;;0.57;;
26989;SDS011;14537;47.788;11.858;2022-10-28T02:14:49;1.15;;;0.77;;
26989;SDS011;14537;47.788;11.858;2022-10-28T02:22:50;1.73;;;0.50;;
26989;SDS011;14537;47.788;11.858;2022-10-28T02:25:29;1.58;;;0.73;;
26989;SDS011;14537;47.788;11.858;2022-10-28T02:30:47;1.77;;;0.70;;
26989;SDS011;14537;47.788;11.858;2022-10-28T02:33:23;1.50;;;0.75;;
26989;SDS011;14537;47.788;11.858;2022-10-28T02:36:09;3.10;;;0.60;;
26989;SDS011;14537;47.788;11.858;2022-10-28T02:38:39;1.38;;;0.65;;
26989;SDS011;14537;47.788;11.858;2022-10-28T02:41:18;2.58;;;0.70;;
26989;SDS011;14537;47.788;11.858;2022-10-28T02:43:48;1.50;;;0.60;;
26989;SDS011;14537;47.788;11.858;2022-10-28T02:46:17;2.22;;;0.80;;
26989;SDS011;14537;47.788;11.858;2022-10-28T02:48:49;1.67;;;1.10;;
26989;SDS011;14537;47.788;11.858;2022-10-28T02:51:26;11.75;;;3.92;;
26989;SDS011;14537;47.788;11.858;2022-10-28T02:54:07;5.55;;;1.73;;
26989;SDS011;14537;47.788;11.858;2022-10-28T02:56:38;2.83;;;1.20;;
26989;SDS011;14537;47.788;11.858;2022-10-28T02:59:24;0.75;;;0.73;;
26989;SDS011;14537;47.788;11.858;2022-10-28T03:01:50;2.75;;;1.17;;
26989;SDS011;14537;47.788;11.858;2022-10-28T03:04:15;3.65;;;1.50;;
26989;SDS011;14537;47.788;11.858;2022-10-28T03:06:41;7.03;;;1.33;;
26989;SDS011;14537;47.788;11.858;2022-10-28T03:09:07;1.38;;;0.80;;
26989;SDS011;14537;47.788;11.858;2022-10-28T03:11:32;2.25;;;0.88;;
26989;SDS011;14537;47.788;11.858;2022-10-28T03:13:58;0.95;;;0.60;;
26989;SDS011;14537;47.788;11.858;2022-10-28T03:16:24;2.38;;;0.63;;
26989;SDS011;14537;47.788;11.858;2022-10-28T03:18:50;4.40;;;0.60;;
26989;SDS011;14537;47.788;11.858;2022-10-28T03:21:17;1.52;;;0.80;;
26989;SDS011;14537;47.788;11.858;2022-10-28T03:23:43;3.53;;;1.15;;
26989;SDS011;14537;47.788;11.858;2022-10-28T03:26:08;3.83;;;1.33;;
26989;SDS011;14537;47.788;11.858;2022-10-28T03:28:34;1.23;;;0.85;;
26989;SDS011;14537;47.788;11.858;2022-10-28T03:31:00;1.67;;;0.75;;
26989;SDS011;14537;47.788;11.858;2022-10-28T03:33:26;1.45;;;0.82;;
26989;SDS011;14537;47.788;11.858;2022-10-28T03:35:51;0.57;;;0.55;;
26989;SDS011;14537;47.788;11.858;2022-10-28T03:38:17;7.95;;;1.33;;
26989;SDS011;14537;47.788;11.858;2022-10-28T03:40:43;1.38;;;0.57;;
26989;SDS011;14537;47.788;11.858;2022-10-28T03:43:11;1.08;;;0.50;;
26989;SDS011;14537;47.788;11.858;2022-10-28T03:45:36;1.00;;;0.80;;
26989;SDS011;14537;47.788;11.858;2022-10-28T03:48:02;1.30;;;0.90;;
26989;SDS011;14537;47.788;11.858;2022-10-28T03:50:28;3.85;;;0.52;;
26989;SDS011;14537;47.788;11.858;2022-10-28T03:52:53;2.15;;;0.60;;
26989;SDS011;14537;47.788;11.858;2022-10-28T03:55:19;2.88;;;1.17;;
26989;SDS011;14537;47.788;11.858;2022-10-28T03:57:45;3.05;;;0.60;;
26989;SDS011;14537;47.788;11.858;2022-10-28T04:00:10;2.08;;;0.65;;
26989;SDS011;14537;47.788;11.858;2022-10-28T04:02:37;1.00;;;0.68;;
26989;SDS011;14537;47.788;11.858;2022-10-28T04:05:02;0.70;;;0.70;;
26989;SDS011;14537;47.788;11.858;2022-10-28T04:07:28;0.95;;;0.73;;
26989;SDS011;14537;47.788;11.858;2022-10-28T04:09:54;0.52;;;0.50;;
26989;SDS011;14537;47.788;11.858;2022-10-28T04:12:19;1.58;;;0.70;;
26989;SDS011;14537;47.788;11.858;2022-10-28T04:14:45;1.92;;;1.13;;
26989;SDS011;14537;47.788;11.858;2022-10-28T04:17:11;5.93;;;1.40;;
26989;SDS011;14537;47.788;11.858;2022-10-28T04:19:37;5.10;;;1.25;;
26989;SDS011;14537;47.788;11.858;2022-10-28T04:22:02;1.23;;;0.80;;
26989;SDS011;14537;47.788;11.858;2022-10-28T04:24:28;2.40;;;0.90;;
26989;SDS011;14537;47.788;11.858;2022-10-28T04:26:54;4.28;;;1.08;;
26989;SDS011;14537;47.788;11.858;2022-10-28T04:29:19;1.15;;;0.90;;
26989;SDS011;14537;47.788;11.858;2022-10-28T04:31:45;1.13;;;0.70;;
26989;SDS011;14537;47.788;11.858;2022-10-28T04:34:11;1.83;;;0.90;;
26989;SDS011;14537;47.788;11.858;2022-10-28T04:36:36;1.60;;;0.80;;
26989;SDS011;14537;47.788;11.858;2022-10-28T04:39:02;4.38;;;0.68;;
26989;SDS011;14537;47.788;11.858;2022-10-28T04:41:28;5.13;;;1.33;;
26989;SDS011;14537;47.788;11.858;2022-10-28T04:43:53;1.73;;;0.90;;
26989;SDS011;14537;47.788;11.858;2022-10-28T04:46:20;1.60;;;0.77;;
26989;SDS011;14537;47.788;11.858;2022-10-28T04:48:46;0.68;;;0.63;;
26989;SDS011;14537;47.788;11.858;2022-10-28T04:51:12;1.45;;;0.63;;
26989;SDS011;14537;47.788;11.858;2022-10-28T04:53:38;1.83;;;0.80;;
26989;SDS011;14537;47.788;11.858;2022-10-28T04:56:04;1.30;;;0.90;;
26989;SDS011;14537;47.788;11.858;2022-10-28T04:58:30;1.50;;;0.63;;
26989;SDS011;14537;47.788;11.858;2022-10-28T05:00:55;2.28;;;0.68;;
26989;SDS011;14537;47.788;11.858;2022-10-28T05:03:21;2.88;;;1.00;;
26989;SDS011;14537;47.788;11.858;2022-10-28T05:05:47;4.53;;;1.10;;
26989;SDS011;14537;47.788;11.858;2022-10-28T05:08:12;3.63;;;1.13;;
26989;SDS011;14537;47.788;11.858;2022-10-28T05:10:38;1.88;;;0.93;;
26989;SDS011;14537;47.788;11.858;2022-10-28T05:13:04;1.88;;;1.00;;
26989;SDS011;14537;47.788;11.858;2022-10-28T05:15:30;2.67;;;0.90;;
26989;SDS011;14537;47.788;11.858;2022-10-28T05:17:55;6.28;;;1.42;;
26989;SDS011;14537;47.788;11.858;2022-10-28T05:20:21;2.90;;;0.95;;
26989;SDS011;14537;47.788;11.858;2022-10-28T05:22:49;1.40;;;0.82;;
26989;SDS011;14537;47.788;11.858;2022-10-28T05:25:21;1.20;;;1.02;;
26989;SDS011;14537;47.788;11.858;2022-10-28T05:27:47;1.58;;;0.60;;
26989;SDS011;14537;47.788;11.858;2022-10-28T05:30:13;1.50;;;1.10;;
26989;SDS011;14537;47.788;11.858;2022-10-28T05:32:39;2.63;;;1.23;;
26989;SDS011;14537;47.788;11.858;2022-10-28T05:35:05;1.52;;;0.82;;
26989;SDS011;14537;47.788;11.858;2022-10-28T05:37:31;7.10;;;0.80;;
26989;SDS011;14537;47.788;11.858;2022-10-28T05:39:57;2.97;;;1.10;;
26989;SDS011;14537;47.788;11.858;2022-10-28T05:42:22;3.00;;;1.13;;
26989;SDS011;14537;47.788;11.858;2022-10-28T05:44:48;2.40;;;1.20;;
26989;SDS011;14537;47.788;11.858;2022-10-28T05:47:14;2.47;;;1.02;;
26989;SDS011;14537;47.788;11.858;2022-10-28T05:49:39;4.00;;;0.98;;
26989;SDS011;14537;47.788;11.858;2022-10-28T05:52:05;2.17;;;1.20;;
26989;SDS011;14537;47.788;11.858;2022-10-28T05:54:31;2.97;;;1.30;;
26989;SDS011;14537;47.788;11.858;2022-10-28T05:56:56;3.20;;;1.20;;
26989;SDS011;14537;47.788;11.858;2022-10-28T05:59:22;2.05;;;0.77;;
26989;SDS011;14537;47.788;11.858;2022-10-28T06:01:47;4.60;;;0.82;;
26989;SDS011;14537;47.788;11.858;2022-10-28T06:04:13;3.30;;;1.00;;
26989;SDS011;14537;47.788;11.858;2022-10-28T06:06:39;2.03;;;1.05;;
26989;SDS011;14537;47.788;11.858;2022-10-28T06:09:05;3.05;;;1.08;;
26989;SDS011;14537;47.788;11.858;2022-10-28T06:11:30;2.42;;;1.15;;
26989;SDS011;14537;47.788;11.858;2022-10-28T06:13:56;1.85;;;1.02;;
26989;SDS011;14537;47.788;11.858;2022-10-28T06:16:22;1.45;;;0.98;;
26989;SDS011;14537;47.788;11.858;2022-10-28T06:18:50;9.13;;;2.47;;
26989;SDS011;14537;47.788;11.858;2022-10-28T06:21:16;6.80;;;2.47;;
26989;SDS011;14537;47.788;11.858;2022-10-28T06:23:42;8.50;;;3.10;;
26989;SDS011;14537;47.788;11.858;2022-10-28T06:26:07;4.68;;;2.55;;
26989;SDS011;14537;47.788;11.858;2022-10-28T06:28:33;11.05;;;2.25;;
26989;SDS011;14537;47.788;11.858;2022-10-28T06:31:02;2.83;;;1.17;;
26989;SDS011;14537;47.788;11.858;2022-10-28T06:33:29;2.42;;;1.23;;
26989;SDS011;14537;47.788;11.858;2022-10-28T06:35:57;3.13;;;1.20;;
26989;SDS011;14537;47.788;11.858;2022-10-28T06:38:24;5.35;;;1.73;;
26989;SDS011;14537;47.788;11.858;2022-10-28T06:40:50;5.55;;;1.83;;
26989;SDS011;14537;47.788;11.858;2022-10-28T06:43:16;3.15;;;1.38;;
26989;SDS011;14537;47.788;11.858;2022-10-28T06:45:41;3.40;;;1.45;;
26989;SDS011;14537;47.788;11.858;2022-10-28T06:48:09;5.55;;;1.08;;
26989;SDS011;14537;47.788;11.858;2022-10-28T06:50:35;5.45;;;1.58;;
26989;SDS011;14537;47.788;11.858;2022-10-28T06:53:02;1.45;;;1.17;;
26989;SDS011;14537;47.788;11.858;2022-10-28T06:55:28;3.03;;;0.90;;
26989;SDS011;14537;47.788;11.858;2022-10-28T06:57:58;2.22;;;1.23;;
26989;SDS011;14537;47.788;11.858;2022-10-28T07:00:25;3.70;;;1.30;;
26989;SDS011;14537;47.788;11.858;2022-10-28T07:02:53;2.00;;;1.30;;
26989;SDS011;14537;47.788;11.858;2022-10-28T07:05:19;6.65;;;1.73;;
26989;SDS011;14537;47.788;11.858;2022-10-28T07:07:45;4.45;;;1.50;;
26989;SDS011;14537;47.788;11.858;2022-10-28T07:10:11;6.50;;;1.48;;
26989;SDS011;14537;47.788;11.858;2022-10-28T07:12:37;4.78;;;1.48;;
26989;SDS011;14537;47.788;11.858;2022-10-28T07:15:03;5.00;;;1.88;;
26989;SDS011;14537;47.788;11.858;2022-10-28T07:17:29;6.78;;;1.98;;
26989;SDS011;14537;47.788;11.858;2022-10-28T07:19:55;3.80;;;1.70;;
26989;SDS011;14537;47.788;11.858;2022-10-28T07:22:21;3.78;;;1.65;;
26989;SDS011;14537;47.788;11.858;2022-10-28T07:24:46;3.92;;;1.80;;
26989;SDS011;14537;47.788;11.858;2022-10-28T07:27:12;5.90;;;1.80;;
26989;SDS011;14537;47.788;11.858;2022-10-28T07:29:38;2.25;;;1.60;;
26989;SDS011;14537;47.788;11.858;2022-10-28T07:32:04;4.10;;;1.67;;
26989;SDS011;14537;47.788;11.858;2022-10-28T07:34:30;8.88;;;2.05;;
26989;SDS011;14537;47.788;11.858;2022-10-28T07:36:55;8.05;;;2.10;;
26989;SDS011;14537;47.788;11.858;2022-10-28T07:39:21;3.97;;;1.80;;
26989;SDS011;14537;47.788;11.858;2022-10-28T07:41:47;6.43;;;1.77;;
26989;SDS011;14537;47.788;11.858;2022-10-28T07:44:13;6.38;;;1.85;;
26989;SDS011;14537;47.788;11.858;2022-10-28T07:46:39;6.05;;;2.35;;
26989;SDS011;14537;47.788;11.858;2022-10-28T07:49:06;3.63;;;1.52;;
26989;SDS011;14537;47.788;11.858;2022-10-28T07:51:31;4.15;;;1.45;;
26989;SDS011;14537;47.788;11.858;2022-10-28T07:53:57;4.32;;;1.50;;
26989;SDS011;14537;47.788;11.858;2022-10-28T07:56:23;7.70;;;1.48;;
26989;SDS011;14537;47.788;11.858;2022-10-28T07:58:49;4.45;;;1.40;;
26989;SDS011;14537;47.788;11.858;2022-10-28T08:01:16;6.30;;;1.48;;
26989;SDS011;14537;47.788;11.858;2022-10-28T08:03:43;3.90;;;1.60;;
26989;SDS011;14537;47.788;11.858;2022-10-28T08:06:12;6.53;;;1.70;;
26989;SDS011;14537;47.788;11.858;2022-10-28T08:08:44;7.10;;;1.40;;
26989;SDS011;14537;47.788;11.858;2022-10-28T08:11:12;4.43;;;1.27;;
26989;SDS011;14537;47.788;11.858;2022-10-28T08:13:39;4.87;;;1.10;;
26989;SDS011;14537;47.788;11.858;2022-10-28T08:16:06;2.72;;;1.08;;
26989;SDS011;14537;47.788;11.858;2022-10-28T08:18:33;6.55;;;1.17;;
26989;SDS011;14537;47.788;11.858;2022-10-28T08:21:00;4.57;;;1.48;;
26989;SDS011;14537;47.788;11.858;2022-10-28T08:23:27;5.18;;;1.10;;
26989;SDS011;14537;47.788;11.858;2022-10-28T08:25:53;2.97;;;1.10;;
26989;SDS011;14537;47.788;11.858;2022-10-28T08:28:19;3.53;;;1.23;;
26989;SDS011;14537;47.788;11.858;2022-10-28T08:30:45;1.83;;;0.90;;
26989;SDS011;14537;47.788;11.858;2022-10-28T08:33:12;4.10;;;1.20;;
26989;SDS011;14537;47.788;11.858;2022-10-28T08:35:37;3.08;;;1.33;;
26989;SDS011;14537;47.788;11.858;2022-10-28T08:38:03;7.25;;;1.48;;
26989;SDS011;14537;47.788;11.858;2022-10-28T08:43:11;2.90;;;1.20;;
26989;SDS011;14537;47.788;11.858;2022-10-28T08:46:00;6.25;;;1.40;;
26989;SDS011;14537;47.788;11.858;2022-10-28T08:48:35;4.70;;;1.52;;
26989;SDS011;14537;47.788;11.858;2022-10-28T08:53:48;4.32;;;1.15;;
26989;SDS011;14537;47.788;11.858;2022-10-28T08:59:02;2.65;;;1.20;;
26989;SDS011;14537;47.788;11.858;2022-10-28T09:01:52;7.03;;;1.50;;
26989;SDS011;14537;47.788;11.858;2022-10-28T09:07:03;2.25;;;1.15;;
26989;SDS011;14537;47.788;11.858;2022-10-28T09:09:30;4.18;;;0.95;;
26989;SDS011;14537;47.788;11.858;2022-10-28T09:20:19;2.45;;;0.90;;
26989;SDS011;14537;47.788;11.858;2022-10-28T09:22:57;2.80;;;1.90;;
26989;SDS011;14537;47.788;11.858;2022-10-28T09:28:25;2.10;;;1.00;;
26989;SDS011;14537;47.788;11.858;2022-10-28T09:31:24;7.97;;;1.20;;
26989;SDS011;14537;47.788;11.858;2022-10-28T09:34:13;3.60;;;1.20;;
26989;SDS011;14537;47.788;11.858;2022-10-28T09:37:21;1.77;;;1.10;;
26989;SDS011;14537;47.788;11.858;2022-10-28T09:39:53;6.13;;;1.60;;
26989;SDS011;14537;47.788;11.858;2022-10-28T09:42:25;5.30;;;1.48;;
26989;SDS011;14537;47.788;11.858;2022-10-28T09:45:17;3.47;;;1.38;;
26989;SDS011;14537;47.788;11.858;2022-10-28T09:47:50;4.55;;;1.00;;
26989;SDS011;14537;47.788;11.858;2022-10-28T09:50:39;4.03;;;1.20;;
26989;SDS011;14537;47.788;11.858;2022-10-28T09:55:49;1.90;;;1.02;;
26989;SDS011;14537;47.788;11.858;2022-10-28T09:58:15;3.60;;;0.82;;
26989;SDS011;14537;47.788;11.858;2022-10-28T10:00:43;10.95;;;1.67;;
26989;SDS011;14537;47.788;11.858;2022-10-28T10:03:09;3.65;;;1.00;;
26989;SDS011;14537;47.788;11.858;2022-10-28T10:05:39;4.18;;;1.23;;
26989;SDS011;14537;47.788;11.858;2022-10-28T10:08:10;2.63;;;1.10;;
26989;SDS011;14537;47.788;11.858;2022-10-28T10:10:49;4.55;;;1.10;;
26989;SDS011;14537;47.788;11.858;2022-10-28T10:13:19;3.10;;;1.42;;
26989;SDS011;14537;47.788;11.858;2022-10-28T10:15:50;2.88;;;1.08;;
26989;SDS011;14537;47.788;11.858;2022-10-28T10:18:23;4.60;;;1.20;;
26989;SDS011;14537;47.788;11.858;2022-10-28T10:20:53;3.50;;;1.33;;
26989;SDS011;14537;47.788;11.858;2022-10-28T10:26:05;1.90;;;1.00;;
26989;SDS011;14537;47.788;11.858;2022-10-28T10:28:32;2.55;;;1.00;;
26989;SDS011;14537;47.788;11.858;2022-10-28T10:31:02;5.38;;;1.23;;
26989;SDS011;14537;47.788;11.858;2022-10-28T10:33:30;2.75;;;1.13;;
26989;SDS011;14537;47.788;11.858;2022-10-28T10:38:37;2.33;;;1.30;;
26989;SDS011;14537;47.788;11.858;2022-10-28T10:41:11;3.65;;;1.30;;
26989;SDS011;14537;47.788;11.858;2022-10-28T10:43:56;2.30;;;1.10;;
26989;SDS011;14537;47.788;11.858;2022-10-28T10:46:21;3.33;;;0.95;;
26989;SDS011;14537;47.788;11.858;2022-10-28T10:48:47;1.90;;;0.93;;
26989;SDS011;14537;47.788;11.858;2022-10-28T10:51:35;4.38;;;1.13;;
26989;SDS011;14537;47.788;11.858;2022-10-28T10:54:01;11.18;;;1.30;;
26989;SDS011;14537;47.788;11.858;2022-10-28T10:56:28;2.40;;;1.00;;
26989;SDS011;14537;47.788;11.858;2022-10-28T10:58:57;1.83;;;0.80;;
26989;SDS011;14537;47.788;11.858;2022-10-28T11:01:27;4.20;;;1.13;;
26989;SDS011;14537;47.788;11.858;2022-10-28T11:03:58;2.20;;;1.40;;
26989;SDS011;14537;47.788;11.858;2022-10-28T11:06:26;3.35;;;0.85;;
26989;SDS011;14537;47.788;11.858;2022-10-28T11:09:40;2.88;;;0.70;;
26989;SDS011;14537;47.788;11.858;2022-10-28T11:11:59;3.95;;;1.58;;
26989;SDS011;14537;47.788;11.858;2022-10-28T11:16:54;2.03;;;0.57;;
26989;SDS011;14537;47.788;11.858;2022-10-28T11:19:34;2.58;;;0.70;;
26989;SDS011;14537;47.788;11.858;2022-10-28T11:30:05;3.50;;;1.40;;
26989;SDS011;14537;47.788;11.858;2022-10-28T11:35:28;2.95;;;0.70;;
26989;SDS011;14537;47.788;11.858;2022-10-28T11:41:39;1.42;;;0.68;;
26989;SDS011;14537;47.788;11.858;2022-10-28T11:43:57;3.60;;;1.08;;
26989;SDS011;14537;47.788;11.858;2022-10-28T11:49:26;2.42;;;0.70;;
26989;SDS011;14537;47.788;11.858;2022-10-28T11:54:56;3.35;;;0.63;;
26989;SDS011;14537;47.788;11.858;2022-10-28T11:57:31;6.18;;;1.20;;
26989;SDS011;14537;47.788;11.858;2022-10-28T12:00:12;2.60;;;0.63;;
26989;SDS011;14537;47.788;11.858;2022-10-28T12:05:55;2.92;;;0.63;;
26989;SDS011;14537;47.788;11.858;2022-10-28T12:17:00;2.53;;;0.90;;
26989;SDS011;14537;47.788;11.858;2022-10-28T12:19:42;3.03;;;1.00;;
26989;SDS011;14537;47.788;11.858;2022-10-28T12:22:22;3.58;;;0.70;;
26989;SDS011;14537;47.788;11.858;2022-10-28T12:24:53;3.35;;;1.00;;
26989;SDS011;14537;47.788;11.858;2022-10-28T12:27:30;5.80;;;0.98;;
26989;SDS011;14537;47.788;11.858;2022-10-28T12:30:06;4.55;;;1.08;;
26989;SDS011;14537;47.788;11.858;2022-10-28T12:32:41;3.50;;;1.95;;
26989;SDS011;14537;47.788;11.858;2022-10-28T12:35:20;2.13;;;1.00;;
26989;SDS011;14537;47.788;11.858;2022-10-28T12:37:55;3.33;;;0.88;;
26989;SDS011;14537;47.788;11.858;2022-10-28T12:40:30;4.65;;;1.38;;
26989;SDS011;14537;47.788;11.858;2022-10-28T12:43:09;4.80;;;0.68;;
26989;SDS011;14537;47.788;11.858;2022-10-28T12:45:40;6.20;;;0.60;;
26989;SDS011;14537;47.788;11.858;2022-10-28T12:48:18;2.50;;;0.63;;
26989;SDS011;14537;47.788;11.858;2022-10-28T12:50:53;7.70;;;0.82;;
26989;SDS011;14537;47.788;11.858;2022-10-28T12:56:25;2.85;;;0.70;;
26989;SDS011;14537;47.788;11.858;2022-10-28T12:59:04;6.97;;;1.83;;
26989;SDS011;14537;47.788;11.858;2022-10-28T13:01:36;3.08;;;1.48;;
26989;SDS011;14537;47.788;11.858;2022-10-28T13:04:02;3.78;;;1.30;;
26989;SDS011;14537;47.788;11.858;2022-10-28T13:06:38;2.67;;;1.13;;
26989;SDS011;14537;47.788;11.858;2022-10-28T13:17:55;2.80;;;0.82;;
26989;SDS011;14537;47.788;11.858;2022-10-28T13:20:45;3.55;;;0.70;;
26989;SDS011;14537;47.788;11.858;2022-10-28T13:26:14;3.17;;;1.48;;
26989;SDS011;14537;47.788;11.858;2022-10-28T13:28:47;5.45;;;1.77;;
26989;SDS011;14537;47.788;11.858;2022-10-28T13:31:15;6.30;;;1.90;;
26989;SDS011;14537;47.788;11.858;2022-10-28T13:33:59;7.80;;;1.90;;
26989;SDS011;14537;47.788;11.858;2022-10-28T13:38:58;3.20;;;1.20;;
26989;SDS011;14537;47.788;11.858;2022-10-28T13:49:31;4.28;;;1.77;;
26989;SDS011;14537;47.788;11.858;2022-10-28T14:05:18;1.98;;;1.15;;
26989;SDS011;14537;47.788;11.858;2022-10-28T14:08:01;3.92;;;1.13;;
26989;SDS011;14537;47.788;11.858;2022-10-28T14:10:29;2.63;;;1.48;;
26989;SDS011;14537;47.788;11.858;2022-10-28T14:13:00;6.35;;;2.22;;
26989;SDS011;14537;47.788;11.858;2022-10-28T14:15:30;4.57;;;1.85;;
26989;SDS011;14537;47.788;11.858;2022-10-28T14:52:43;5.03;;;2.25;;
26989;SDS011;14537;47.788;11.858;2022-10-28T14:55:30;6.93;;;1.50;;
26989;SDS011;14537;47.788;11.858;2022-10-28T15:01:35;2.80;;;1.02;;
26989;SDS011;14537;47.788;11.858;2022-10-28T15:03:40;3.65;;;1.10;;
26989;SDS011;14537;47.788;11.858;2022-10-28T15:06:32;6.57;;;1.45;;
26989;SDS011;14537;47.788;11.858;2022-10-28T15:09:21;13.38;;;2.63;;
26989;SDS011;14537;47.788;11.858;2022-10-28T15:11:57;14.00;;;2.95;;
26989;SDS011;14537;47.788;11.858;2022-10-28T15:14:28;12.63;;;2.85;;
26989;SDS011;14537;47.788;11.858;2022-10-28T15:17:02;8.90;;;2.33;;
26989;SDS011;14537;47.788;11.858;2022-10-28T15:19:35;8.35;;;2.35;;
26989;SDS011;14537;47.788;11.858;2022-10-28T15:25:00;10.45;;;2.85;;
26989;SDS011;14537;47.788;11.858;2022-10-28T15:27:32;8.65;;;2.65;;
26989;SDS011;14537;47.788;11.858;2022-10-28T15:30:00;4.40;;;1.90;;
26989;SDS011;14537;47.788;11.858;2022-10-28T15:34:54;19.75;;;9.70;;
26989;SDS011;14537;47.788;11.858;2022-10-28T15:37:21;11.43;;;6.95;;
26989;SDS011;14537;47.788;11.858;2022-10-28T15:45:17;3.85;;;2.00;;
26989;SDS011;14537;47.788;11.858;2022-10-28T15:47:44;10.05;;;2.00;;
26989;SDS011;14537;47.788;11.858;2022-10-28T15:52:41;9.97;;;2.10;;
26989;SDS011;14537;47.788;11.858;2022-10-28T15:55:27;9.50;;;2.28;;
26989;SDS011;14537;47.788;11.858;2022-10-28T15:57:54;4.82;;;1.50;;
26989;SDS011;14537;47.788;11.858;2022-10-28T16:00:53;4.40;;;1.65;;
26989;SDS011;14537;47.788;11.858;2022-10-28T16:09:04;6.63;;;1.50;;
26989;SDS011;14537;47.788;11.858;2022-10-28T16:11:33;6.55;;;1.60;;
26989;SDS011;14537;47.788;11.858;2022-10-28T16:14:06;3.60;;;1.13;;
26989;SDS011;14537;47.788;11.858;2022-10-28T16:16:47;4.25;;;1.52;;
26989;SDS011;14537;47.788;11.858;2022-10-28T16:19:29;3.25;;;1.35;;
26989;SDS011;14537;47.788;11.858;2022-10-28T16:21:59;5.43;;;1.33;;
26989;SDS011;14537;47.788;11.858;2022-10-28T16:24:25;5.88;;;1.67;;
26989;SDS011;14537;47.788;11.858;2022-10-28T16:26:50;6.32;;;1.50;;
26989;SDS011;14537;47.788;11.858;2022-10-28T16:29:16;4.97;;;1.25;;
26989;SDS011;14537;47.788;11.858;2022-10-28T16:31:43;3.70;;;1.23;;
26989;SDS011;14537;47.788;11.858;2022-10-28T16:34:14;3.42;;;1.77;;
26989;SDS011;14537;47.788;11.858;2022-10-28T16:36:40;5.15;;;2.63;;
26989;SDS011;14537;47.788;11.858;2022-10-28T16:39:12;13.55;;;3.60;;
26989;SDS011;14537;47.788;11.858;2022-10-28T16:41:38;12.60;;;5.07;;
26989;SDS011;14537;47.788;11.858;2022-10-28T16:44:15;19.92;;;5.10;;
26989;SDS011;14537;47.788;11.858;2022-10-28T16:46:42;14.15;;;4.65;;
26989;SDS011;14537;47.788;11.858;2022-10-28T16:49:09;17.00;;;5.78;;
26989;SDS011;14537;47.788;11.858;2022-10-28T16:51:35;11.55;;;4.68;;
26989;SDS011;14537;47.788;11.858;2022-10-28T16:54:00;12.57;;;4.65;;
26989;SDS011;14537;47.788;11.858;2022-10-28T16:56:26;11.57;;;4.05;;
26989;SDS011;14537;47.788;11.858;2022-10-28T16:58:52;6.05;;;2.60;;
26989;SDS011;14537;47.788;11.858;2022-10-28T17:01:19;8.57;;;3.30;;
26989;SDS011;14537;47.788;11.858;2022-10-28T17:03:46;8.93;;;2.65;;
26989;SDS011;14537;47.788;11.858;2022-10-28T17:06:11;6.38;;;2.65;;
26989;SDS011;14537;47.788;11.858;2022-10-28T17:08:37;6.00;;;2.53;;
26989;SDS011;14537;47.788;11.858;2022-10-28T17:11:03;7.30;;;2.45;;
26989;SDS011;14537;47.788;11.858;2022-10-28T17:13:29;6.53;;;2.22;;
26989;SDS011;14537;47.788;11.858;2022-10-28T17:15:55;13.20;;;2.78;;
26989;SDS011;14537;47.788;11.858;2022-10-28T17:18:21;5.80;;;1.42;;
26989;SDS011;14537;47.788;11.858;2022-10-28T17:20:56;5.55;;;1.70;;
26989;SDS011;14537;47.788;11.858;2022-10-28T17:23:26;4.75;;;1.30;;
26989;SDS011;14537;47.788;11.858;2022-10-28T17:25:59;7.22;;;1.55;;
26989;SDS011;14537;47.788;11.858;2022-10-28T17:28:26;5.55;;;1.50;;
26989;SDS011;14537;47.788;11.858;2022-10-28T17:30:52;2.85;;;1.50;;
26989;SDS011;14537;47.788;11.858;2022-10-28T17:33:17;2.72;;;1.60;;
26989;SDS011;14537;47.788;11.858;2022-10-28T17:35:43;9.07;;;2.05;;
26989;SDS011;14537;47.788;11.858;2022-10-28T17:38:09;2.70;;;1.30;;
26989;SDS011;14537;47.788;11.858;2022-10-28T17:40:34;4.22;;;1.27;;
26989;SDS011;14537;47.788;11.858;2022-10-28T17:43:00;1.67;;;1.08;;
26989;SDS011;14537;47.788;11.858;2022-10-28T17:45:26;12.32;;;1.60;;
26989;SDS011;14537;47.788;11.858;2022-10-28T17:47:51;4.38;;;1.80;;
26989;SDS011;14537;47.788;11.858;2022-10-28T17:50:17;4.88;;;1.90;;
26989;SDS011;14537;47.788;11.858;2022-10-28T17:52:43;9.90;;;3.08;;
26989;SDS011;14537;47.788;11.858;2022-10-28T17:55:09;4.50;;;2.00;;
26989;SDS011;14537;47.788;11.858;2022-10-28T17:57:34;3.45;;;1.63;;
26989;SDS011;14537;47.788;11.858;2022-10-28T18:00:00;4.90;;;2.03;;
26989;SDS011;14537;47.788;11.858;2022-10-28T18:02:26;7.80;;;1.83;;
26989;SDS011;14537;47.788;11.858;2022-10-28T18:04:51;4.95;;;1.38;;